Time,TemperatureF,DewpointF,PressureIn,WindDirection,WindDirectionDegrees,WindSpeedMPH,WindSpeedGustMPH,Humidity,HourlyPrecipIn,Conditions,Clouds,dailyrainin,SolarRadiationWatts/m^2,SoftwareType,DateUTC
2013-02-02 00:11:00,32.0,31.0,-100.00,SE,138,2.0,3.0,96,-99.99,,,-99.99,0.000000,,2013-02-02 08:11:00,
2013-02-02 01:11:00,31.0,30.0,-100.00,SSE,154,1.0,2.0,96,-99.99,,,0.00,0.000000,,2013-02-02 09:11:00,
2013-02-02 02:11:00,29.0,29.0,-100.00,SSE,150,2.0,2.0,96,-99.99,,,0.00,0.000000,,2013-02-02 10:11:00,
2013-02-02 03:11:00,29.0,28.0,-100.00,SE,145,2.0,3.0,96,-99.99,,,0.00,0.000000,,2013-02-02 11:11:00,
2013-02-02 04:11:00,30.0,30.0,-100.00,ESE,109,1.0,2.0,97,-99.99,,,0.00,0.000000,,2013-02-02 12:11:00,
2013-02-02 05:11:00,28.0,27.0,-100.00,SSE,153,2.0,3.0,96,-99.99,,,0.00,0.000000,,2013-02-02 13:11:00,
2013-02-02 06:11:00,28.0,27.0,-100.00,SSW,198,0.0,1.0,96,-99.99,,,0.00,0.000000,,2013-02-02 14:11:00,
2013-02-02 07:12:00,27.0,26.0,-100.00,SSE,160,1.0,3.0,96,-99.99,,,-99.99,0.000000,,2013-02-02 15:12:00,
2013-02-02 08:11:00,27.0,26.0,-100.00,ESE,122,2.0,3.0,96,-99.99,,,0.00,0.700000,,2013-02-02 16:11:00,
2013-02-02 09:11:00,27.0,26.0,-100.00,SE,145,0.0,2.0,96,-99.99,,,-99.99,20.219999,,2013-02-02 17:11:00,
2013-02-02 10:12:00,31.0,30.0,-100.00,SE,143,1.0,2.0,97,-99.99,,,0.00,190.250000,,2013-02-02 18:12:00,
2013-02-02 12:11:00,41.0,36.0,-100.00,SSE,155,2.0,4.0,80,-99.99,,,0.00,425.950012,,2013-02-02 20:11:00,
2013-02-02 13:11:00,46.0,37.0,-100.00,NW,315,1.0,3.0,72,-99.99,,,0.00,459.070007,,2013-02-02 21:11:00,
2013-02-02 14:11:00,50.0,38.0,-100.00,East,98,3.0,9.0,64,-99.99,,,0.00,374.000000,,2013-02-02 22:11:00,
2013-02-02 15:11:00,52.0,39.0,-100.00,SSE,162,2.0,7.0,60,-99.99,,,0.00,369.459991,,2013-02-02 23:11:00,
2013-02-02 16:11:00,52.0,39.0,-100.00,SSW,196,1.0,4.0,61,-99.99,,,0.00,163.289993,,2013-02-03 00:11:00,
2013-02-02 17:11:00,50.0,39.0,-100.00,SSE,155,2.0,3.0,65,-99.99,,,0.00,73.330002,,2013-02-03 01:11:00,
2013-02-02 18:11:00,46.0,39.0,-100.00,South,179,1.0,2.0,75,-99.99,,,0.00,6.860000,,2013-02-03 02:11:00,
2013-02-02 19:11:00,42.0,37.0,-100.00,SE,132,1.0,2.0,83,-99.99,,,0.00,0.000000,,2013-02-03 03:11:00,
2013-02-02 20:11:00,37.0,35.0,-100.00,SSE,155,1.0,2.0,89,-99.99,,,0.00,0.000000,,2013-02-03 04:11:00,
2013-02-02 21:11:00,34.0,33.0,-100.00,SE,146,2.0,3.0,94,-99.99,,,0.00,0.000000,,2013-02-03 05:11:00,
2013-02-02 22:11:00,34.0,33.0,-100.00,SE,141,1.0,2.0,95,-99.99,,,0.00,0.000000,,2013-02-03 06:11:00,
2013-02-02 23:11:00,32.0,31.0,-100.00,SSE,152,2.0,3.0,96,-99.99,,,0.00,0.000000,,2013-02-03 07:11:00,